Country
Station

 

Weather  for  Columbia, Columbia Owens Downtown Airport  -  United States    United States

  
13 °C (55 °F)
    
 
 

Current METAR for Columbia, Columbia Owens Downtown Airport is :

KCUB 161853Z AUTO 30004KT 10SM CLR 13/01 A3009 RMK AO2 SLP187 T01280006

 

This is a report for Columbia, Columbia Owens Downtown Airport - United States.
 
The report was made 10 minutes ago, at 18:53 UTC .
The wind was blowing at a speed of 2.1 meters per second (4.6 miles per hour) from west/northwest (300°).
 
The temperature was 13 °C (55 °F), with a dew-point at 1 °C (34 °F).
The atmospheric pressure was 1019 hPa (30.09 inHg).
The relative humidity was 43.8%.
 
The sky was clear.
 
The overall visibility was 16.1 kilometers (10.0 miles).
 

 
 
 
 

Country :   A   B   C   D   E   F   G   H   I   J   K   L   M   N   O   P   Q   R   S   T   U   V   W   Y   Z

 

Site Info  |  Disclaimer  |  Credits  |  Privacy
Contact us  |  Add to favorites
© 2013-2018 METARs - All rights reserved